• Join FlightAware (Why Join?)
  • Login
  • US Flag 
Trick or treat! (Boo!!) 
12:55AM EDT


 

Airport Tracker/Info


-or-


 

Live Flight TrackerFlight Track Log ✈ TAM3213 ✈ 27-Aug-2013 ✈ SBCF / CNF - SBSP / CGH

Flight Track Log - Related Links

Times and Time Zones

All times are in EDT time to prevent confusion due to time zone crossing. See the TAM3213 flight status page for this flight to view local times or setup timezone preferences in your user account.

Time Position Orientation Groundspeed Altitude Reporting Facility
EDT Latitude Longitude Course Direction KTS MPH feet Rate Location/Type
08:33AM -19.6310 -43.9710 90° East 130 150  Level FlightAware
08:33AM -19.6420 -43.9620 142° Southeast 164 189 2,900 5,400 Climbing FlightAware
08:33AM -19.6550 -43.9520 144° Southeast 174 200 3,600 1,740 Climbing FlightAware
08:33AM -19.6610 -43.9500 163° South 187 215 3,800 1,140 Climbing FlightAware
08:34AM -19.6720 -43.9470 166° South 200 230 4,000 1,380 Climbing FlightAware
08:34AM -19.6900 -43.9420 165° South 227 261 4,500 2,220 Climbing FlightAware
08:34AM -19.7070 -43.9360 162° South 220 253 5,400 3,000 Climbing FlightAware
08:34AM -19.7140 -43.9280 133° Southeast 222 255 5,800 2,760 Climbing FlightAware
08:34AM -19.7160 -43.9240 118° Southeast 225 259 6,000 2,760 Climbing FlightAware
08:35AM -19.7180 -43.9120 100° East 226 260 6,500 2,580 Climbing FlightAware
08:35AM -19.7110 -43.8930 69° East 225 259 7,300 2,100 Climbing FlightAware
08:35AM -19.7030 -43.8860 39° Northeast 226 260 7,700 2,700 Climbing FlightAware
08:35AM -19.6930 -43.8830 16° North 225 259 8,200 2,640 Climbing FlightAware
08:36AM -19.6620 -43.8920 345° North 240 276 9,300 2,040 Climbing FlightAware
08:36AM -19.6520 -43.8960 339° North 252 290 9,600 1,320 Climbing FlightAware
08:36AM -19.6150 -43.9110 339° North 291 335 10,200 1,200 Climbing FlightAware
08:37AM -19.6040 -43.9200 322° Northwest 302 348 10,400 1,200 Climbing FlightAware
08:37AM -19.5950 -43.9320 309° West 316 364 10,600 1,980 Climbing FlightAware
08:37AM -19.5780 -43.9860 288° West 337 388 11,900 2,280 Climbing FlightAware
08:38AM -19.5680 -44.0250 285° West 342 394 13,000 2,520 Climbing FlightAware
08:38AM -19.5740 -44.0600 260° West 341 392 14,000 2,340 Climbing FlightAware
08:38AM -19.5900 -44.0830 234° Southwest 351 404 14,500 2,040 Climbing FlightAware
08:39AM -19.6280 -44.1240 225° Southwest 363 418 15,700 1,860 Climbing FlightAware
08:40AM -19.6690 -44.1690 226° Southwest 381 438 16,600 1,680 Climbing FlightAware
08:40AM -19.7110 -44.2140 225° Southwest 385 443 17,700 1,800 Climbing FlightAware
08:41AM -19.7600 -44.2670 226° Southwest 391 450 18,800 1,740 Climbing FlightAware
08:41AM -19.8040 -44.3150 226° Southwest 402 463 19,800 2,100 Climbing FlightAware
08:42AM -19.8560 -44.3710 225° Southwest 398 458 21,300 1,680 Climbing FlightAware
08:43AM -19.9090 -44.4290 226° Southwest 422 486 22,000 1,380 Climbing FlightAware
08:43AM -19.9610 -44.4850 225° Southwest 424 488 23,200 1,740 Climbing FlightAware
08:44AM -20.0140 -44.5440 226° Southwest 426 490 24,300 1,620 Climbing FlightAware
08:44AM -20.0540 -44.5780 219° Southwest 439 505 24,900 1,260 Climbing FlightAware
08:45AM -20.1030 -44.6190 218° Southwest 438 504 25,500 1,320 Climbing FlightAware
08:45AM -20.1320 -44.6760 242° Southwest 425 489 26,300 1,560 Climbing FlightAware
08:46AM -20.1530 -44.7430 252° West 423 487 27,300 1,800 Climbing FlightAware
08:47AM -20.1840 -44.8350 250° West 412 474 28,800 2,400 Climbing FlightAware
08:47AM -20.2030 -44.8910 250° West 389 448 30,400 2,280 Climbing FlightAware
08:48AM -20.2210 -44.9470 251° West 383 441 31,500 1,320 Climbing FlightAware
08:48AM -20.2400 -45.0020 250° West 385 443 32,000 360 Climbing FlightAware
08:49AM -20.2650 -45.0810 251° West 381 438 32,000  Level FlightAware
08:50AM -20.2780 -45.1200 250° West 384 442 32,000  Level FlightAware
08:50AM -20.2960 -45.1740 250° West 385 443 32,000  Level FlightAware
08:51AM -20.3400 -45.2680 243° Southwest 391 450 32,000  Level FlightAware
08:51AM -20.3750 -45.3160 232° Southwest 395 455 32,000  Level FlightAware
08:52AM -20.4230 -45.3770 230° Southwest 395 455 32,000  Level FlightAware
08:53AM -20.4660 -45.4300 229° Southwest 395 455 32,000  Level FlightAware
08:54AM -20.5370 -45.5180 229° Southwest 393 452 32,000  Level FlightAware
08:54AM -20.5800 -45.5710 229° Southwest 392 451 32,000  Level FlightAware
08:55AM -20.6160 -45.6160 229° Southwest 393 452 32,000  Level FlightAware
08:55AM -20.6710 -45.6840 229° Southwest 393 452 32,000  Level FlightAware
08:56AM -20.7140 -45.7370 229° Southwest 393 452 32,000  Level FlightAware
08:57AM -20.7540 -45.7870 229° Southwest 393 452 32,000  Level FlightAware
08:57AM -20.7770 -45.8160 230° Southwest 393 452 32,000  Level FlightAware
08:58AM -20.8200 -45.8690 229° Southwest 393 452 32,000  Level FlightAware
08:59AM -20.8890 -45.9560 230° Southwest 392 451 32,000  Level FlightAware
08:59AM -20.9270 -46.0040 230° Southwest 392 451 32,000  Level FlightAware
09:00AM -20.9700 -46.0570 229° Southwest 390 449 32,000  Level FlightAware
09:00AM -21.0130 -46.1110 230° Southwest 390 449 32,000  Level FlightAware
09:01AM -21.0550 -46.1640 230° Southwest 389 448 32,000  Level FlightAware
09:02AM -21.1010 -46.2220 230° Southwest 389 448 32,000  Level FlightAware
09:02AM -21.1450 -46.2770 229° Southwest 389 448 32,000  Level FlightAware
09:03AM -21.1810 -46.3220 229° Southwest 389 448 32,000  Level FlightAware
09:03AM -21.2240 -46.3770 230° Southwest 388 447 32,000  Level FlightAware
09:04AM -21.2660 -46.4290 229° Southwest 388 447 32,000  Level FlightAware
09:04AM -21.3030 -46.4770 230° Southwest 387 445 32,000  Level FlightAware
09:05AM -21.3400 -46.5230 229° Southwest 386 444 32,000  Level FlightAware
09:06AM -21.3840 -46.5790 230° Southwest 386 444 32,000  Level FlightAware
09:06AM -21.4240 -46.6290 229° Southwest 386 444 32,000  Level FlightAware
09:07AM -21.4680 -46.6850 230° Southwest 386 444 32,000  Level FlightAware
09:07AM -21.5090 -46.7360 229° Southwest 389 448 32,000  Level FlightAware
09:08AM -21.5530 -46.7870 227° Southwest 389 448 32,000  Level FlightAware
09:09AM -21.5960 -46.8360 227° Southwest 389 448 32,000  Level FlightAware
09:09AM -21.6370 -46.8840 227° Southwest 389 448 32,000  Level FlightAware
09:10AM -21.6830 -46.9360 226° Southwest 389 448 32,000  Level FlightAware
09:10AM -21.7210 -46.9800 227° Southwest 389 448 32,000  Level FlightAware
09:10AM -21.7360 -46.9970 226° Southwest 387 445 32,000  Level FlightAware
09:11AM -21.7900 -47.0720 232° Southwest 384 442 32,000  Level FlightAware
09:12AM -21.8250 -47.1220 233° Southwest 383 441 32,000  Level FlightAware
09:12AM -21.8650 -47.1770 232° Southwest 383 441 32,000  Level FlightAware
09:13AM -21.9050 -47.2330 232° Southwest 382 440 32,000  Level FlightAware
09:14AM -21.9390 -47.2810 233° Southwest 382 440 32,000  Level FlightAware
09:14AM -21.9790 -47.3350 231° Southwest 382 440 32,000  Level FlightAware
09:15AM -22.0180 -47.3890 232° Southwest 381 438 32,000  Level FlightAware
09:15AM -22.0560 -47.4420 232° Southwest 381 438 32,000  Level FlightAware
09:16AM -22.0910 -47.4900 232° Southwest 381 438 32,000 -120 Level FlightAware
09:16AM -22.1270 -47.5360 230° Southwest 388 447 31,900 -480 Descending FlightAware
09:17AM -22.1580 -47.5610 217° Southwest 400 460 31,600 -960 Descending FlightAware
09:17AM -22.1780 -47.5710 205° Southwest 412 474 31,400 -1,260 Descending FlightAware
09:18AM -22.2360 -47.5830 191° South 449 517 30,700 -2,040 Descending FlightAware
09:18AM -22.3210 -47.5800 178° South 450 518 29,000 -2,460 Descending FlightAware
09:19AM -22.3920 -47.5770 178° South 451 519 27,700 -2,400 Descending FlightAware
09:19AM -22.4700 -47.5750 179° South 454 522 26,200 -2,400 Descending FlightAware
09:20AM -22.5330 -47.5730 178° South 456 525 25,000 -2,460 Descending FlightAware
09:20AM -22.6080 -47.5700 178° South 458 527 23,600 -2,460 Descending FlightAware
09:21AM -22.6770 -47.5680 178° South 457 526 22,300 -1,620 Descending FlightAware
09:22AM -22.7540 -47.5650 178° South 429 494 21,600 -1,020 Descending FlightAware
09:22AM -22.8120 -47.5500 167° South 430 495 21,100 -1,260 Descending FlightAware
09:22AM -22.8320 -47.5350 145° Southeast 434 499 20,800 -1,500 Descending FlightAware
09:23AM -22.8740 -47.4960 139° Southeast 421 484 20,100 -1,440 Descending FlightAware
09:23AM -22.9210 -47.4530 140° Southeast 414 476 19,200 -1,500 Descending FlightAware
09:24AM -22.9740 -47.4030 139° Southeast 405 466 18,300 -1,620 Descending FlightAware
09:25AM -23.0210 -47.3600 140° Southeast 397 457 17,400 -1,500 Descending FlightAware
09:25AM -23.0780 -47.3060 139° Southeast 382 440 16,500 -1,260 Descending FlightAware
09:26AM -23.1150 -47.2710 139° Southeast 375 432 15,900 -1,560 Descending FlightAware
09:26AM -23.1600 -47.2300 140° Southeast 373 429 14,900 -1,680 Descending FlightAware
09:27AM -23.2140 -47.1800 140° Southeast 366 421 13,900 -1,740 Descending FlightAware
09:28AM -23.2560 -47.1410 140° Southeast 365 420 12,800 -1,740 Descending FlightAware
09:28AM -23.2970 -47.1020 139° Southeast 356 410 12,100 -1,620 Descending FlightAware
09:29AM -23.3480 -47.0540 139° Southeast 352 405 10,900 -1,560 Descending FlightAware
09:29AM -23.3830 -47.0210 139° Southeast 345 397 10,300 -900 Descending FlightAware
09:30AM -23.4260 -46.9810 140° Southeast 321 369 9,900 -660 Descending FlightAware
09:30AM -23.4610 -46.9480 139° Southeast 303 349 9,600 -600 Descending FlightAware
09:31AM -23.4830 -46.9280 140° Southeast 292 336 9,400 -660 Descending FlightAware
09:31AM -23.5080 -46.9040 139° Southeast 280 322 9,100 -900 Descending FlightAware
09:32AM -23.5390 -46.8740 138° Southeast 265 305 8,600 -780 Descending FlightAware
09:32AM -23.5440 -46.8680 132° Southeast 262 302 8,600 -720 Level FlightAware
09:32AM -23.5670 -46.8460 139° Southeast 249 287 8,200 -780 Descending FlightAware
09:33AM -23.5880 -46.8260 139° Southeast 240 276 8,000 -300 Descending FlightAware
09:33AM -23.6090 -46.8060 139° Southeast 235 270 8,000  Level FlightAware
09:33AM -23.6220 -46.7930 138° Southeast 232 267 8,000  Level FlightAware
09:34AM -23.6340 -46.7820 140° Southeast 232 267 8,000  Level FlightAware
09:34AM -23.6470 -46.7680 135° Southeast 233 268 8,000  Level FlightAware
09:34AM -23.6750 -46.7400 138° Southeast 234 269 8,000  Level FlightAware
09:35AM -23.6880 -46.7280 140° Southeast 234 269 8,000  Level FlightAware
09:35AM -23.7040 -46.7120 138° Southeast 235 270 8,000 -180 Level FlightAware
09:35AM -23.7200 -46.6970 139° Southeast 234 269 7,900 -480 Descending FlightAware
09:36AM -23.7390 -46.6820 144° Southeast 232 267 7,700 -480 Descending FlightAware
09:36AM -23.7580 -46.6670 144° Southeast 232 267 7,600 -420 Descending FlightAware
09:36AM -23.7780 -46.6510 144° Southeast 233 268 7,400 -720 Descending FlightAware
09:37AM -23.7950 -46.6380 145° Southeast 229 264 7,100 -900 Descending FlightAware
09:37AM -23.8140 -46.6220 142° Southeast 218 251 6,800 -660 Descending FlightAware
09:37AM -23.8250 -46.6130 143° Southeast 214 246 6,700 -600 Descending FlightAware
09:38AM -23.8330 -46.6070 146° Southeast 211 243 6,500 -660 Descending FlightAware
09:38AM -23.8500 -46.5940 145° Southeast 208 239 6,300 -660 Descending FlightAware
09:38AM -23.8620 -46.5850 146° Southeast 208 239 6,100 -900 Descending FlightAware
09:39AM -23.8740 -46.5720 135° Southeast 213 245 5,800 -900 Descending FlightAware
09:39AM -23.8770 -46.5560 102° East 212 244 5,600 -1,020 Descending FlightAware
09:39AM -23.8610 -46.5350 50° Northeast 182 209 5,200 -960 Descending FlightAware
09:39AM -23.8570 -46.5340 13° North 179 206 5,200 -720 Level FlightAware
09:40AM -23.8400 -46.5330 North 177 204 4,900 -600 Descending FlightAware
09:40AM -23.8240 -46.5310 North 177 204 4,800 -180 Descending FlightAware
09:40AM -23.8070 -46.5340 351° North 177 204 4,800  Level FlightAware
09:41AM -23.8010 -46.5370 335° Northwest 175 201 4,800  Level FlightAware
09:41AM -23.7840 -46.5490 327° Northwest 173 199 4,800  Level FlightAware
09:41AM -23.7730 -46.5560 330° Northwest 172 198 4,800  Level FlightAware
09:42AM -23.7600 -46.5640 331° Northwest 149 171 4,800  Level FlightAware
09:42AM -23.7500 -46.5710 327° Northwest 135 155 4,800  Level FlightAware
09:42AM -23.7370 -46.5810 325° Northwest 130 150 4,800 -180 Level FlightAware
09:43AM -23.7260 -46.5880 330° Northwest 130 150 4,700 -660 Descending FlightAware
09:43AM -23.7130 -46.5970 328° Northwest 132 152 4,300 -900 Descending FlightAware
09:43AM -23.7010 -46.6050 329° Northwest 127 146 4,000 -780 Descending FlightAware
09:44AM -23.6890 -46.6130 329° Northwest 126 145 3,700 -780 Descending FlightAware
09:44AM -23.6770 -46.6220 326° Northwest 126 145 3,400 -660 Descending FlightAware
09:45AM -23.6710 -46.6260 329° Northwest 126 145 3,300 -600 Descending FlightAware
09:45AM -23.6590 -46.6350 326° Northwest 129 148 3,000 -720 Descending FlightAware
09:45AM -23.6490 -46.6410 331° Northwest 124 143 2,800 -660 Descending FlightAware
09:46AM -23.6360 -46.6500 328° Northwest 127 146 2,500 -660 Descending FlightAware
09:46AM -23.6270 -46.6560 329° Northwest 122 140 -9,420 Descending FlightAware
09:48AM -23.6240 -46.6600 180° South 122 140  Level FlightAware
09:49AM -23.6230 -46.6460 86° East 122 140  Level FlightAware
09:49AM -23.6240 -46.6600 266° West 122 140  Level FlightAware
09:50AM -23.6230 -46.6460 86° East 122 140  Level FlightAware
09:50AM -23.6240 -46.6600 266° West 122 140  Level FlightAware
09:51AM -23.6230 -46.6470 85° East 122 140  Level FlightAware
09:51AM -23.6230 -46.6460 90° East 122 140  Level FlightAware
09:53AM -23.6230 -46.6470 270° West 122 140  Level FlightAware
09:56AM -23.6230 -46.6460 90° East 122 140  Level FlightAware